Time;durP1;ratioP1;P1;durP2;ratioP2;P2;SDS_P1;SDS_P2;PMS_P1;PMS_P2;Temp;Humidity;BMP_temperature;BMP_pressure;BME280_temperature;BME280_humidity;BME280_pressure;Samples;Min_cycle;Max_cycle;Signal;HPM_P1;HPM_P2
2023/10/10 00:00:54;;;;;;;20.15;7.20;;;15.50;99.90;;;;;;5064691;28;20053;-72
2023/10/10 00:03:21;;;;;;;15.50;6.75;;;15.60;99.90;;;;;;5019596;28;20545;-73
2023/10/10 00:05:48;;;;;;;15.20;6.47;;;15.50;99.90;;;;;;5041431;28;20056;-73
2023/10/10 00:08:15;;;;;;;16.70;6.55;;;15.50;99.90;;;;;;5019912;28;146861;-73
2023/10/10 00:10:50;;;;;;;18.27;6.13;;;15.50;99.90;;;;;;5056912;28;20098;-72
2023/10/10 00:13:19;;;;;;;14.77;6.20;;;15.50;99.90;;;;;;5013799;28;145003;-72
2023/10/10 00:15:50;;;;;;;18.23;6.55;;;15.60;99.90;;;;;;5066111;28;20055;-72
2023/10/10 00:18:19;;;;;;;14.98;6.35;;;15.50;99.90;;;;;;5018950;28;43684;-72
2023/10/10 00:21:04;;;;;;;16.48;6.68;;;15.50;99.90;;;;;;5051116;28;20056;-72
2023/10/10 00:23:33;;;;;;;17.20;6.13;;;15.50;99.90;;;;;;5005798;28;226361;-72
2023/10/10 00:26:00;;;;;;;15.00;5.93;;;15.50;99.90;;;;;;5049532;28;20415;-72
2023/10/10 00:28:27;;;;;;;15.35;6.25;;;15.50;99.90;;;;;;5005365;28;228134;-72
2023/10/10 00:30:54;;;;;;;14.63;6.85;;;15.50;99.90;;;;;;5057345;28;20267;-73
2023/10/10 00:33:20;;;;;;;16.38;6.72;;;15.50;99.90;;;;;;5008678;28;253160;-73
2023/10/10 00:35:47;;;;;;;17.23;6.53;;;15.50;99.90;;;;;;5037183;28;20440;-72
2023/10/10 00:38:22;;;;;;;16.88;6.32;;;15.60;99.90;;;;;;4997163;28;134842;-73
2023/10/10 00:40:48;;;;;;;15.70;5.70;;;15.60;99.90;;;;;;5044528;28;20048;-73
2023/10/10 00:43:22;;;;;;;15.27;6.35;;;15.60;99.90;;;;;;5022798;28;104593;-72
2023/10/10 00:45:54;;;;;;;15.82;6.38;;;15.50;99.90;;;;;;5061493;28;20048;-72
2023/10/10 00:48:23;;;;;;;15.27;6.32;;;15.50;99.90;;;;;;5007599;28;255494;-72
2023/10/10 00:51:05;;;;;;;17.55;5.85;;;15.50;99.90;;;;;;5027534;28;20056;-72
2023/10/10 00:53:36;;;;;;;17.58;6.32;;;15.50;99.90;;;;;;5000950;28;129698;-72
2023/10/10 00:56:06;;;;;;;21.75;6.57;;;15.50;99.90;;;;;;5066615;28;20060;-72
2023/10/10 00:58:37;;;;;;;15.65;5.85;;;15.60;99.90;;;;;;5015422;28;120961;-73
2023/10/10 01:01:09;;;;;;;16.13;6.15;;;15.50;99.90;;;;;;5064711;28;20510;-73
2023/10/10 01:03:50;;;;;;;15.38;6.43;;;15.60;99.90;;;;;;5010333;28;151773;-72
2023/10/10 01:06:26;;;;;;;15.03;5.90;;;15.60;99.90;;;;;;5045106;28;20055;-72
2023/10/10 01:09:15;;;;;;;15.63;5.53;;;15.50;99.90;;;;;;4989710;28;195324;-73
2023/10/10 01:11:42;;;;;;;15.88;5.80;;;15.50;99.90;;;;;;5053835;28;20500;-72
2023/10/10 01:14:09;;;;;;;15.18;5.70;;;15.50;99.90;;;;;;5002595;28;20053;-72
2023/10/10 01:16:35;;;;;;;18.70;5.97;;;15.50;99.90;;;;;;5044440;28;20045;-72
2023/10/10 01:19:02;;;;;;;15.60;6.20;;;15.50;99.90;;;;;;5010266;28;151486;-72
2023/10/10 01:21:32;;;;;;;13.90;5.32;;;15.50;99.90;;;;;;5055717;28;20060;-72
2023/10/10 01:24:12;;;;;;;13.52;5.75;;;15.50;99.90;;;;;;5013997;28;20528;-72
2023/10/10 01:26:44;;;;;;;16.00;6.00;;;15.50;99.90;;;;;;5032169;28;20134;-72
2023/10/10 01:29:27;;;;;;;13.43;6.07;;;15.50;99.90;;;;;;4997223;28;271201;-72
2023/10/10 01:31:54;;;;;;;17.77;5.97;;;15.50;99.90;;;;;;5052811;28;20065;-72
2023/10/10 01:34:30;;;;;;;14.20;6.05;;;15.50;99.90;;;;;;5017609;28;49959;-72
2023/10/10 01:36:59;;;;;;;18.17;6.03;;;15.50;99.90;;;;;;5056908;28;20056;-72
2023/10/10 01:40:06;;;;;;;16.08;5.97;;;15.50;99.90;;;;;;4998523;28;208985;-71
2023/10/10 01:42:43;;;;;;;14.52;5.90;;;15.50;99.90;;;;;;5055723;28;20056;-73
2023/10/10 01:45:09;;;;;;;16.88;5.53;;;15.50;99.90;;;;;;5004713;28;172207;-72
2023/10/10 01:47:39;;;;;;;13.68;5.60;;;15.40;99.90;;;;;;5058224;28;20045;-71
2023/10/10 01:50:10;;;;;;;17.42;5.60;;;15.50;99.90;;;;;;4993711;28;245362;-72
2023/10/10 01:52:37;;;;;;;;;;;15.50;99.90;;;;;;5062699;28;20048;-72
2023/10/10 01:55:05;;;;;;;18.20;5.60;;;15.50;99.90;;;;;;4981063;28;199680;-72
2023/10/10 01:57:32;;;;;;;14.10;5.43;;;15.50;99.90;;;;;;5052067;28;20060;-71
2023/10/10 01:59:59;;;;;;;16.65;5.15;;;15.50;99.90;;;;;;4977798;28;228798;-72
2023/10/10 02:02:27;;;;;;;13.43;5.40;;;15.50;99.90;;;;;;5061614;28;20056;-71
2023/10/10 02:04:59;;;;;;;15.65;5.22;;;15.50;99.90;;;;;;5001038;28;180707;-71
2023/10/10 02:07:31;;;;;;;13.88;4.80;;;15.50;99.90;;;;;;5056476;28;20043;-72
2023/10/10 02:10:13;;;;;;;14.57;5.00;;;15.50;99.90;;;;;;4988905;28;111624;-73
2023/10/10 02:12:44;;;;;;;13.48;4.75;;;15.50;99.90;;;;;;5060986;28;20048;-72
2023/10/10 02:15:26;;;;;;;13.35;4.80;;;15.50;99.90;;;;;;4993661;28;143492;-72
2023/10/10 02:17:54;;;;;;;12.95;4.57;;;15.50;99.90;;;;;;5033489;28;20048;-72
2023/10/10 02:22:54;;;;;;;15.80;5.05;;;15.50;99.90;;;;;;5023666;28;21281;-72
2023/10/10 02:27:56;;;;;;;12.10;3.95;;;15.50;99.90;;;;;;5018583;28;20041;-73
2023/10/10 02:30:35;;;;;;;11.40;4.55;;;15.50;99.90;;;;;;5039559;28;20045;-72
2023/10/10 02:33:15;;;;;;;11.57;4.30;;;15.50;99.90;;;;;;5028391;28;20629;-72
2023/10/10 02:35:54;;;;;;;11.55;4.00;;;15.50;99.90;;;;;;5030113;28;20043;-72
2023/10/10 02:38:40;;;;;;;11.43;4.50;;;15.50;99.90;;;;;;5020611;28;88001;-73
2023/10/10 02:41:38;;;;;;;12.80;4.18;;;15.50;99.90;;;;;;5056844;28;20056;-72
2023/10/10 02:44:09;;;;;;;11.40;4.13;;;15.50;99.90;;;;;;4995518;28;226814;-73
2023/10/10 02:46:40;;;;;;;11.02;4.07;;;15.50;99.90;;;;;;5051190;28;20048;-71
2023/10/10 02:49:13;;;;;;;13.02;4.30;;;15.50;99.90;;;;;;5018000;28;32602;-71
2023/10/10 02:51:43;;;;;;;12.43;4.53;;;15.50;99.90;;;;;;5052835;28;20071;-73
2023/10/10 02:54:20;;;;;;;11.95;4.88;;;15.50;99.90;;;;;;4995197;28;71726;-72
2023/10/10 02:56:48;;;;;;;12.60;4.78;;;15.50;99.90;;;;;;5053403;28;20246;-73
2023/10/10 02:59:22;;;;;;;16.90;5.60;;;15.50;99.90;;;;;;5019040;28;20594;-74
2023/10/10 03:01:56;;;;;;;17.80;5.70;;;15.40;99.90;;;;;;5052465;28;20423;-73
2023/10/10 03:04:50;;;;;;;12.90;5.53;;;15.40;99.90;;;;;;5017772;28;20120;-73
2023/10/10 03:07:09;;;;;;;13.55;5.88;;;15.30;99.90;;;;;;5055907;28;20052;-73
2023/10/10 03:10:05;;;;;;;15.40;5.68;;;15.40;99.90;;;;;;5012994;28;20041;-73
2023/10/10 03:12:29;;;;;;;17.67;6.43;;;15.40;99.90;;;;;;5061327;28;20055;-73
2023/10/10 03:15:12;;;;;;;14.40;6.47;;;15.30;99.90;;;;;;4998680;28;20056;-73
2023/10/10 03:20:34;;;;;;;17.30;6.53;;;15.30;99.90;;;;;;5003916;28;20059;-73
2023/10/10 03:26:00;;;;;;;15.48;6.30;;;15.40;99.90;;;;;;5038071;28;20040;-71
2023/10/10 03:31:04;;;;;;;15.38;6.13;;;15.30;99.90;;;;;;5055775;28;20055;-72
2023/10/10 05:25:55;;;;;;;31.13;18.90;;;15.20;99.90;;;;;;5047721;28;20052;-74
2023/10/10 05:28:22;;;;;;;34.60;19.13;;;15.20;99.90;;;;;;5015720;28;20075;-74
2023/10/10 05:30:48;;;;;;;31.83;18.48;;;15.20;99.90;;;;;;5061933;28;20076;-73
2023/10/10 05:33:19;;;;;;;35.42;20.52;;;15.10;99.90;;;;;;5017789;28;20060;-73
2023/10/10 05:35:48;;;;;;;33.47;18.98;;;15.10;99.90;;;;;;5045017;28;20071;-73
2023/10/10 05:38:16;;;;;;;34.17;20.55;;;15.10;99.90;;;;;;5021662;28;20824;-74
2023/10/10 05:40:43;;;;;;;39.42;20.95;;;15.00;99.90;;;;;;5057158;28;20051;-73
2023/10/10 05:43:15;;;;;;;35.40;19.98;;;15.10;99.90;;;;;;5017907;28;84819;-73
2023/10/10 05:45:42;;;;;;;35.50;20.35;;;15.00;99.90;;;;;;5034078;28;20057;-74
2023/10/10 05:48:09;;;;;;;35.45;19.58;;;15.00;99.90;;;;;;5018310;28;20053;-73
2023/10/10 05:50:37;;;;;;;32.28;18.83;;;15.00;99.90;;;;;;5058015;28;20057;-74
2023/10/10 05:53:06;;;;;;;35.08;19.33;;;15.00;99.90;;;;;;4999553;28;168064;-73
2023/10/10 05:55:37;;;;;;;35.17;20.65;;;14.90;99.90;;;;;;5019285;28;20407;-72
2023/10/10 05:58:04;;;;;;;36.42;19.10;;;15.00;99.90;;;;;;5020002;28;20048;-73
2023/10/10 06:00:36;;;;;;;37.20;20.27;;;14.90;99.90;;;;;;5018871;28;20075;-72
2023/10/10 06:03:06;;;;;;;41.03;20.83;;;14.90;99.90;;;;;;5022828;28;20058;-72
2023/10/10 06:05:33;;;;;;;35.93;20.40;;;14.90;99.90;;;;;;5058351;28;20462;-71
2023/10/10 06:08:01;;;;;;;38.95;22.65;;;14.90;99.90;;;;;;5027643;28;20529;-72
2023/10/10 06:10:31;;;;;;;39.22;22.20;;;14.90;99.90;;;;;;5043703;28;20438;-72
2023/10/10 06:12:58;;;;;;;41.17;22.38;;;15.00;99.90;;;;;;5020544;28;20060;-72
2023/10/10 06:15:24;;;;;;;37.83;22.77;;;14.90;99.90;;;;;;5041979;28;20053;-72
2023/10/10 06:18:08;;;;;;;38.28;21.75;;;15.00;99.90;;;;;;5014130;28;20044;-72
2023/10/10 06:20:40;;;;;;;39.63;23.80;;;15.00;99.90;;;;;;5048207;28;20045;-72
2023/10/10 06:23:14;;;;;;;36.75;22.40;;;15.00;99.90;;;;;;5026030;28;20049;-71
2023/10/10 06:25:41;;;;;;;38.15;22.52;;;15.00;99.90;;;;;;5051582;28;20541;-73
2023/10/10 06:28:22;;;;;;;34.08;21.55;;;15.10;99.90;;;;;;5026863;28;20062;-72
2023/10/10 06:30:52;;;;;;;36.22;22.67;;;15.10;99.90;;;;;;5074807;28;20048;-72
2023/10/10 06:33:28;;;;;;;40.73;22.87;;;15.10;99.90;;;;;;5021309;28;56162;-72
2023/10/10 06:36:32;;;;;;;34.83;21.25;;;15.10;99.90;;;;;;5060546;28;20055;-72
2023/10/10 06:41:35;;;;;;;35.95;21.75;;;15.20;99.90;;;;;;5059496;28;20048;-72
2023/10/10 06:44:04;;;;;;;35.22;21.33;;;15.30;99.90;;;;;;5020512;28;20057;-73
2023/10/10 06:46:32;;;;;;;35.25;21.55;;;15.40;99.90;;;;;;5062590;28;20071;-72
2023/10/10 06:49:04;;;;;;;33.22;21.20;;;15.50;99.90;;;;;;5014047;28;20642;-72
2023/10/10 06:51:31;;;;;;;29.80;20.38;;;15.50;99.90;;;;;;5055758;28;20058;-72
2023/10/10 06:53:57;;;;;;;31.13;20.00;;;15.60;99.90;;;;;;5003328;28;136195;-72
2023/10/10 06:57:05;;;;;;;31.48;20.42;;;15.50;99.90;;;;;;5064322;28;20048;-72
2023/10/10 06:59:20;;;;;;;30.90;19.40;;;15.60;99.90;;;;;;5008917;28;120692;-71
2023/10/10 07:01:46;;;;;;;32.55;20.30;;;15.60;99.90;;;;;;5063456;28;20071;-72
2023/10/10 07:04:13;;;;;;;30.60;18.58;;;15.70;99.90;;;;;;5016547;28;20566;-72
2023/10/10 07:06:45;;;;;;;29.83;18.48;;;15.70;99.90;;;;;;5030048;28;20422;-72
2023/10/10 07:09:14;;;;;;;28.55;18.67;;;15.80;99.90;;;;;;5015228;28;20057;-72
2023/10/10 07:11:41;;;;;;;29.73;18.23;;;15.80;99.90;;;;;;5056034;28;20550;-72
2023/10/10 07:14:11;;;;;;;28.38;19.60;;;15.80;99.90;;;;;;5011787;28;24267;-72
2023/10/10 07:16:42;;;;;;;33.90;21.23;;;15.80;99.90;;;;;;5056566;28;20045;-72
2023/10/10 07:19:29;;;;;;;35.75;20.48;;;15.80;99.90;;;;;;5006427;28;245653;-73
2023/10/10 07:21:57;;;;;;;38.10;24.35;;;15.80;99.90;;;;;;5058106;28;20067;-72
2023/10/10 07:24:40;;;;;;;35.47;25.05;;;15.90;99.90;;;;;;5008518;28;120767;-72
2023/10/10 07:27:11;;;;;;;41.75;24.40;;;15.90;99.90;;;;;;5058011;28;20083;-72
2023/10/10 07:32:17;;;;;;;43.15;26.73;;;16.10;99.90;;;;;;5063040;28;20534;-72
2023/10/10 07:34:49;;;;;;;41.17;25.90;;;16.20;99.90;;;;;;5001234;28;20052;-73
2023/10/10 07:37:17;;;;;;;42.58;26.50;;;16.30;99.90;;;;;;5064419;28;20056;-72
2023/10/10 07:39:55;;;;;;;46.20;27.60;;;16.40;99.90;;;;;;5026151;28;28739;-73
2023/10/10 07:42:34;;;;;;;42.05;26.02;;;16.40;99.90;;;;;;5061019;28;20056;-73
2023/10/10 07:45:44;;;;;;;41.00;26.38;;;16.40;99.90;;;;;;5005993;28;125606;-73
2023/10/10 07:50:27;;;;;;;41.22;25.90;;;16.50;99.90;;;;;;5031386;28;149576;-73
2023/10/10 07:52:54;;;;;;;39.22;26.45;;;16.60;99.90;;;;;;5034429;28;20049;-73
2023/10/10 07:55:24;;;;;;;40.80;26.13;;;16.60;99.90;;;;;;5028628;28;132414;-72
2023/10/10 07:57:59;;;;;;;38.08;26.05;;;16.60;99.90;;;;;;5031019;28;20060;-72
2023/10/10 08:00:35;;;;;;;39.00;24.85;;;16.60;99.90;;;;;;5054433;28;77155;-73
2023/10/10 08:03:02;;;;;;;41.95;26.75;;;16.70;99.90;;;;;;5034206;28;20053;-72
2023/10/10 08:05:29;;;;;;;40.22;26.67;;;16.60;99.90;;;;;;5046478;28;135887;-72
2023/10/10 08:07:56;;;;;;;43.40;27.33;;;16.70;99.90;;;;;;5027731;28;20057;-73
2023/10/10 08:13:18;;;;;;;42.25;30.02;;;16.90;99.90;;;;;;5009565;28;140388;-73
2023/10/10 08:15:51;;;;;;;43.95;30.67;;;16.90;99.90;;;;;;5061765;28;20044;-72
2023/10/10 08:23:32;;;;;;;45.05;31.77;;;17.20;99.90;;;;;;5019184;28;20053;-73
2023/10/10 08:25:58;;;;;;;40.33;30.50;;;17.30;99.90;;;;;;5064701;28;20060;-72
2023/10/10 08:28:24;;;;;;;44.42;30.65;;;17.30;99.90;;;;;;4997022;28;95146;-72
2023/10/10 08:30:52;;;;;;;48.80;32.35;;;17.40;99.90;;;;;;5049747;28;20060;-71
2023/10/10 08:33:19;;;;;;;41.97;31.33;;;17.40;99.90;;;;;;5012633;28;212700;-73
2023/10/10 08:35:46;;;;;;;46.92;31.90;;;17.50;99.90;;;;;;5046074;28;20048;-73
2023/10/10 08:38:19;;;;;;;44.88;32.45;;;17.60;99.90;;;;;;5014574;28;154027;-72
2023/10/10 08:41:01;;;;;;;46.35;32.83;;;17.60;99.90;;;;;;5043512;28;20639;-73
2023/10/10 08:43:31;;;;;;;44.88;32.28;;;17.70;99.90;;;;;;5008106;28;249905;-74
2023/10/10 08:46:03;;;;;;;47.08;32.20;;;17.90;99.90;;;;;;5044494;28;20040;-73
2023/10/10 08:48:33;;;;;;;47.25;32.47;;;18.10;99.90;;;;;;5016660;28;55040;-73
2023/10/10 08:51:03;;;;;;;47.13;33.17;;;18.10;99.90;;;;;;5060407;28;20048;-73
2023/10/10 08:53:35;;;;;;;43.38;31.45;;;18.00;99.90;;;;;;4997230;28;263377;-73
2023/10/10 08:56:03;;;;;;;48.78;33.67;;;18.10;99.90;;;;;;5040114;28;20431;-73
2023/10/10 08:58:31;;;;;;;50.42;32.95;;;18.10;99.90;;;;;;5012837;28;215231;-74
2023/10/10 09:00:59;;;;;;;46.22;32.53;;;18.20;99.90;;;;;;5034764;28;20045;-73
2023/10/10 09:03:26;;;;;;;47.10;32.90;;;18.30;99.90;;;;;;5001979;28;144645;-73
2023/10/10 09:05:53;;;;;;;49.13;33.42;;;18.20;99.90;;;;;;5036029;28;20048;-73
2023/10/10 09:08:26;;;;;;;47.15;33.53;;;18.20;99.90;;;;;;5016408;28;198988;-73
2023/10/10 09:10:59;;;;;;;46.55;32.58;;;18.30;99.90;;;;;;5028196;28;20048;-73
2023/10/10 09:13:31;;;;;;;47.60;33.17;;;18.40;99.90;;;;;;5018015;28;54004;-73
2023/10/10 09:15:58;;;;;;;47.92;32.30;;;18.40;99.90;;;;;;5049922;28;20051;-73
2023/10/10 09:18:25;;;;;;;49.95;32.58;;;18.50;99.90;;;;;;5014704;28;210164;-74
2023/10/10 09:20:55;;;;;;;49.33;32.97;;;18.60;99.90;;;;;;5035908;28;20427;-72
2023/10/10 09:23:23;;;;;;;49.33;32.38;;;18.60;99.90;;;;;;5018916;28;20060;-73
2023/10/10 09:26:29;;;;;;;50.42;32.63;;;18.80;99.90;;;;;;5060025;28;20066;-73
2023/10/10 09:28:56;;;;;;;46.97;31.60;;;18.80;99.90;;;;;;5004827;28;257284;-73
2023/10/10 09:31:32;;;;;;;50.47;31.48;;;19.00;99.90;;;;;;5056946;28;20399;-74
2023/10/10 09:34:03;;;;;;;47.88;31.40;;;19.00;99.90;;;;;;5005298;28;20053;-73
2023/10/10 09:36:37;;;;;;;44.92;29.15;;;18.90;99.90;;;;;;5031128;28;20044;-73
2023/10/10 09:39:08;;;;;;;45.47;28.40;;;18.90;99.90;;;;;;4995032;28;140602;-74
2023/10/10 10:00:45;;;;;;;41.67;27.17;;;19.40;99.90;;;;;;5006273;28;20051;-72
2023/10/10 10:03:32;;;;;;;41.28;26.42;;;19.40;99.90;;;;;;5010631;28;256312;-75
2023/10/10 10:09:31;;;;;;;39.67;26.77;;;19.30;99.90;;;;;;5013940;28;36071;-72
2023/10/10 10:12:19;;;;;;;44.80;25.58;;;19.20;99.90;;;;;;5056341;28;20045;-73
2023/10/10 10:14:55;;;;;;;40.90;25.65;;;19.30;99.90;;;;;;5019466;28;137758;-74
2023/10/10 10:17:53;;;;;;;39.45;25.38;;;19.40;99.90;;;;;;5058884;28;20056;-73
2023/10/10 10:23:27;;;;;;;37.95;25.85;;;19.50;99.90;;;;;;5008940;28;238208;-73
2023/10/10 10:25:54;;;;;;;37.88;25.05;;;19.50;99.90;;;;;;5037082;28;20045;-73
2023/10/10 10:28:28;;;;;;;38.95;25.30;;;19.50;99.90;;;;;;5023673;28;36173;-73
2023/10/10 10:30:54;;;;;;;39.53;25.33;;;19.60;99.90;;;;;;5055495;28;20064;-72
2023/10/10 10:33:24;;;;;;;39.60;26.08;;;19.70;99.90;;;;;;5023511;28;20044;-73
2023/10/10 10:38:39;;;;;;;36.40;25.08;;;20.10;99.90;;;;;;5020326;28;20071;-72
2023/10/10 10:41:08;;;;;;;36.17;23.88;;;20.30;99.90;;;;;;5039566;28;20060;-72
2023/10/10 10:43:38;;;;;;;38.40;25.27;;;20.80;99.90;;;;;;5010287;28;135829;-72
2023/10/10 10:46:14;;;;;;;37.58;26.00;;;21.20;99.90;;;;;;5050127;28;20060;-72
2023/10/10 10:48:48;;;;;;;36.10;23.98;;;21.50;99.90;;;;;;5015639;28;188290;-73
2023/10/10 10:51:26;;;;;;;37.05;23.90;;;21.50;99.90;;;;;;5044742;28;20048;-75
2023/10/10 10:53:58;;;;;;;35.03;23.58;;;21.70;99.90;;;;;;4998702;28;101258;-73
2023/10/10 10:59:19;;;;;;;33.30;22.38;;;21.60;99.90;;;;;;5007080;28;203306;-73
2023/10/10 11:01:51;;;;;;;33.50;22.85;;;21.30;99.90;;;;;;5052984;28;20052;-74
2023/10/10 11:04:46;;;;;;;29.50;20.80;;;21.30;99.90;;;;;;5013747;28;151495;-74
2023/10/10 11:07:18;;;;;;;33.50;22.45;;;21.10;99.90;;;;;;5052590;28;20868;-74
2023/10/10 11:10:06;;;;;;;30.15;20.48;;;20.90;99.90;;;;;;5018217;28;20415;-74
2023/10/10 11:12:36;;;;;;;33.90;21.48;;;20.80;99.90;;;;;;5059804;28;21246;-73
2023/10/10 11:15:10;;;;;;;36.50;22.42;;;20.70;99.90;;;;;;5007882;28;20075;-73
2023/10/10 11:17:39;;;;;;;33.25;21.35;;;20.70;99.90;;;;;;5059897;28;20397;-73
2023/10/10 11:23:06;;;;;;;29.92;19.77;;;21.00;99.90;;;;;;5030458;28;20040;-73
2023/10/10 11:25:44;;;;;;;29.40;17.90;;;21.20;99.90;;;;;;5020121;28;20060;-73
2023/10/10 11:28:21;;;;;;;26.75;18.67;;;21.60;99.90;;;;;;5028935;28;20043;-73
2023/10/10 11:30:50;;;;;;;28.65;17.95;;;21.80;99.90;;;;;;5048566;28;20166;-73
2023/10/10 11:33:49;;;;;;;28.10;17.52;;;21.70;99.90;;;;;;5023332;28;88132;-74
2023/10/10 11:36:37;;;;;;;25.55;16.95;;;22.30;99.90;;;;;;5050404;28;20056;-72
2023/10/10 11:39:16;;;;;;;28.50;16.73;;;22.60;99.90;;;;;;5015317;28;216934;-74
2023/10/10 11:41:51;;;;;;;25.83;17.40;;;23.00;99.90;;;;;;5057486;28;20048;-74
2023/10/10 11:44:19;;;;;;;25.30;16.25;;;23.80;99.90;;;;;;5018435;28;58235;-75
2023/10/10 11:46:49;;;;;;;25.90;17.15;;;24.50;99.90;;;;;;5056373;28;20056;-74
2023/10/10 11:49:16;;;;;;;27.67;16.83;;;24.70;99.90;;;;;;5017380;28;64827;-74
2023/10/10 11:51:42;;;;;;;27.27;17.00;;;24.50;99.90;;;;;;5057608;28;20056;-73
2023/10/10 11:54:08;;;;;;;25.83;16.92;;;24.40;99.90;;;;;;5003289;28;129149;-73
2023/10/10 11:56:37;;;;;;;26.77;16.17;;;24.40;99.90;;;;;;5054134;28;20052;-73
2023/10/10 11:59:10;;;;;;;28.30;16.45;;;25.00;99.90;;;;;;5015359;28;22390;-74
2023/10/10 12:01:51;;;;;;;25.10;15.90;;;25.70;99.90;;;;;;5051407;28;20048;-74
2023/10/10 12:04:30;;;;;;;22.58;15.50;;;26.40;99.90;;;;;;5012078;28;22320;-74
2023/10/10 12:07:00;;;;;;;23.05;15.38;;;26.90;99.90;;;;;;5056328;28;20498;-73
2023/10/10 12:09:38;;;;;;;20.73;13.82;;;26.90;99.40;;;;;;5004441;28;184898;-73
2023/10/10 12:12:04;;;;;;;23.23;13.95;;;26.70;98.20;;;;;;5059664;28;20056;-73
2023/10/10 12:14:31;;;;;;;25.23;14.32;;;26.40;99.00;;;;;;5007114;28;20037;-73
2023/10/10 12:16:59;;;;;;;23.08;14.38;;;26.70;99.30;;;;;;5059145;28;20051;-73
2023/10/10 12:19:28;;;;;;;23.38;14.00;;;26.80;98.30;;;;;;4991938;28;108606;-72
2023/10/10 12:21:55;;;;;;;21.15;13.80;;;27.00;98.60;;;;;;5055926;28;20056;-74
2023/10/10 12:24:32;;;;;;;19.50;12.98;;;27.20;98.40;;;;;;5015161;28;136257;-74
2023/10/10 12:26:58;;;;;;;23.33;15.05;;;26.50;97.10;;;;;;5058173;28;20063;-74
2023/10/10 12:29:24;;;;;;;21.00;13.73;;;26.00;97.30;;;;;;5020051;28;20060;-73
2023/10/10 12:31:55;;;;;;;24.35;14.43;;;25.60;98.10;;;;;;5048480;28;20845;-72
2023/10/10 12:34:23;;;;;;;24.25;13.55;;;26.00;98.20;;;;;;5030040;28;20048;-72
2023/10/10 12:36:58;;;;;;;20.67;12.85;;;26.00;98.30;;;;;;5060563;28;20056;-72
2023/10/10 12:39:27;;;;;;;22.92;14.43;;;26.20;98.30;;;;;;5002438;28;180979;-75
2023/10/10 12:41:55;;;;;;;22.92;14.80;;;25.60;97.50;;;;;;5058947;28;20045;-74
2023/10/10 12:44:23;;;;;;;24.25;14.43;;;24.50;98.40;;;;;;5005163;28;20068;-74
2023/10/10 12:46:54;;;;;;;22.92;14.25;;;23.80;99.10;;;;;;5055636;28;20675;-74
2023/10/10 12:49:28;;;;;;;23.25;14.25;;;23.50;99.40;;;;;;5011685;28;20253;-74
2023/10/10 12:51:58;;;;;;;24.45;14.45;;;23.30;99.80;;;;;;5059275;28;20562;-74
2023/10/10 12:54:34;;;;;;;24.40;15.13;;;23.30;99.90;;;;;;4970378;28;131773;-73
2023/10/10 12:57:13;;;;;;;23.30;13.77;;;23.30;99.90;;;;;;5040557;28;20045;-72
2023/10/10 12:59:39;;;;;;;23.23;13.55;;;23.20;99.90;;;;;;5002092;28;56905;-72
2023/10/10 13:02:08;;;;;;;24.77;14.10;;;23.00;99.90;;;;;;5062154;28;20426;-74
2023/10/10 13:04:36;;;;;;;25.38;13.45;;;22.90;99.90;;;;;;5015225;28;20442;-73
2023/10/10 13:07:03;;;;;;;23.15;14.45;;;22.80;99.90;;;;;;5055478;28;20048;-74
2023/10/10 13:09:30;;;;;;;25.50;13.38;;;22.70;99.90;;;;;;5005354;28;20045;-73
2023/10/10 13:11:56;;;;;;;25.77;14.52;;;22.60;99.90;;;;;;5057615;28;20090;-74
2023/10/10 13:14:25;;;;;;;21.20;13.02;;;22.60;99.90;;;;;;5019046;28;20060;-74
2023/10/10 13:19:23;;;;;;;24.45;13.73;;;22.50;99.90;;;;;;5009975;28;111008;-73
2023/10/10 13:21:52;;;;;;;28.45;13.70;;;22.40;99.90;;;;;;5058293;28;20574;-73
2023/10/10 13:24:18;;;;;;;23.55;15.02;;;22.40;99.90;;;;;;5018095;28;63905;-72
2023/10/10 13:26:49;;;;;;;25.23;14.80;;;22.30;99.90;;;;;;5050188;28;20056;-73
2023/10/10 13:29:16;;;;;;;26.67;14.68;;;22.20;99.90;;;;;;5009600;28;119898;-75
2023/10/10 13:31:44;;;;;;;23.83;15.15;;;22.20;99.90;;;;;;5052803;28;20053;-74
2023/10/10 13:34:11;;;;;;;23.92;15.75;;;22.00;99.90;;;;;;5008485;28;40335;-74
2023/10/10 13:36:37;;;;;;;26.75;14.88;;;22.00;99.90;;;;;;5050148;28;20060;-73
2023/10/10 13:39:07;;;;;;;25.02;15.73;;;21.90;99.90;;;;;;5010439;28;128647;-73
2023/10/10 13:41:36;;;;;;;24.58;15.95;;;22.00;99.90;;;;;;5058627;28;20103;-74
2023/10/10 13:44:04;;;;;;;24.55;16.23;;;22.00;99.90;;;;;;5009033;28;170498;-74
2023/10/10 13:46:35;;;;;;;27.13;16.52;;;22.00;99.90;;;;;;5054239;28;20396;-74
2023/10/10 13:49:08;;;;;;;27.80;16.50;;;22.00;99.90;;;;;;5006046;28;254455;-75
2023/10/10 13:51:39;;;;;;;35.67;16.83;;;21.90;99.90;;;;;;5057663;28;20052;-75
2023/10/10 13:54:05;;;;;;;25.02;15.43;;;21.90;99.90;;;;;;4994371;28;136084;-73
2023/10/10 13:56:31;;;;;;;28.55;16.13;;;21.70;99.90;;;;;;5054918;28;20493;-73
2023/10/10 13:59:00;;;;;;;25.20;15.32;;;21.90;99.90;;;;;;5004949;28;153714;-74
2023/10/10 14:01:29;;;;;;;24.42;16.00;;;22.10;99.90;;;;;;5059152;28;20058;-73
2023/10/10 14:04:03;;;;;;;26.98;16.55;;;22.20;99.90;;;;;;5013837;28;46938;-74
2023/10/10 14:06:45;;;;;;;25.42;15.63;;;22.30;99.90;;;;;;5052156;28;20748;-75
2023/10/10 14:09:21;;;;;;;25.88;15.90;;;22.10;99.90;;;;;;4995549;28;36880;-72
2023/10/10 14:11:49;;;;;;;26.42;16.10;;;22.00;99.90;;;;;;5056268;28;20562;-74
2023/10/10 14:14:15;;;;;;;24.17;15.68;;;22.00;99.90;;;;;;4994335;28;20053;-73
2023/10/10 14:16:42;;;;;;;25.55;16.38;;;22.00;99.90;;;;;;5035016;28;20052;-73
2023/10/10 14:19:08;;;;;;;25.67;16.73;;;22.00;99.90;;;;;;5008485;28;20073;-73
2023/10/10 14:21:38;;;;;;;26.08;17.15;;;22.00;99.90;;;;;;5052133;28;20073;-73
2023/10/10 14:24:07;;;;;;;26.83;16.80;;;21.90;99.90;;;;;;5022957;28;166840;-73
2023/10/10 14:26:36;;;;;;;29.30;17.08;;;21.90;99.90;;;;;;5054766;28;20057;-72
2023/10/10 14:29:07;;;;;;;26.55;16.88;;;21.80;99.90;;;;;;5010384;28;203379;-73
2023/10/10 14:31:35;;;;;;;26.15;17.45;;;21.80;99.90;;;;;;5047608;28;20057;-73
2023/10/10 14:34:04;;;;;;;26.80;17.42;;;21.60;99.90;;;;;;5006940;28;192816;-74
2023/10/10 14:36:31;;;;;;;32.28;17.55;;;21.70;99.90;;;;;;5044322;28;20396;-73
2023/10/10 14:38:57;;;;;;;26.52;17.48;;;21.80;99.90;;;;;;4996691;28;93356;-76
2023/10/10 14:41:30;;;;;;;29.55;17.33;;;21.60;99.90;;;;;;5052082;28;20052;-74
2023/10/10 14:44:06;;;;;;;26.33;17.60;;;21.50;99.90;;;;;;5007749;28;128253;-75
2023/10/10 14:46:32;;;;;;;30.85;17.88;;;21.40;99.90;;;;;;5064828;28;20063;-73
2023/10/10 14:49:16;;;;;;;30.52;18.50;;;21.40;99.90;;;;;;5015285;28;189177;-73
2023/10/10 14:51:48;;;;;;;26.88;17.48;;;21.40;99.90;;;;;;5038804;28;20048;-74
2023/10/10 14:54:19;;;;;;;27.45;18.08;;;21.40;99.90;;;;;;4985023;28;128297;-75
2023/10/10 14:56:51;;;;;;;;;;;21.20;99.90;;;;;;5051517;28;20049;-74
2023/10/10 14:59:20;;;;;;;27.75;17.80;;;21.10;99.90;;;;;;5019910;28;79275;-73
2023/10/10 15:01:50;;;;;;;29.85;16.75;;;21.00;99.90;;;;;;5059820;28;20048;-73
2023/10/10 15:04:18;;;;;;;25.60;17.65;;;21.00;99.90;;;;;;5016081;28;180519;-73
2023/10/10 15:06:45;;;;;;;27.70;18.15;;;21.00;99.90;;;;;;5058819;28;20052;-75
2023/10/10 15:09:13;;;;;;;30.40;16.75;;;20.90;99.90;;;;;;5005142;28;112580;-74
2023/10/10 15:11:43;;;;;;;27.33;17.85;;;20.90;99.90;;;;;;5034467;28;20041;-73
2023/10/10 15:14:12;;;;;;;26.23;16.90;;;20.80;99.90;;;;;;5016639;28;81768;-73
2023/10/10 15:16:40;;;;;;;27.48;17.77;;;20.80;99.90;;;;;;5049351;28;20529;-72
2023/10/10 15:19:08;;;;;;;27.23;17.02;;;20.70;99.90;;;;;;5034535;28;20669;-72
2023/10/10 15:21:38;;;;;;;32.20;17.15;;;20.70;99.90;;;;;;5045770;28;20044;-73
2023/10/10 15:24:11;;;;;;;28.02;16.95;;;20.70;99.90;;;;;;5032716;28;20053;-73
2023/10/10 15:26:47;;;;;;;25.98;16.00;;;20.60;99.90;;;;;;5052279;28;20048;-73
2023/10/10 15:29:16;;;;;;;27.02;16.58;;;20.50;99.90;;;;;;5015891;28;92179;-72
2023/10/10 15:31:42;;;;;;;25.30;16.77;;;20.40;99.90;;;;;;5057413;28;20047;-73
2023/10/10 15:34:15;;;;;;;25.48;16.20;;;20.40;99.90;;;;;;5009331;28;20063;-74
2023/10/10 15:36:45;;;;;;;25.77;15.57;;;20.30;99.90;;;;;;5048943;28;20056;-73
2023/10/10 15:39:12;;;;;;;25.30;16.33;;;20.30;99.90;;;;;;5030137;28;20044;-74
2023/10/10 15:41:42;;;;;;;26.42;17.05;;;20.20;99.90;;;;;;5052633;28;20063;-73
2023/10/10 15:44:12;;;;;;;28.05;16.88;;;20.20;99.90;;;;;;5028805;28;20048;-72
2023/10/10 15:46:39;;;;;;;27.08;16.98;;;20.10;99.90;;;;;;5058117;28;20059;-73
2023/10/10 15:49:14;;;;;;;26.33;16.17;;;20.10;99.90;;;;;;5021275;28;99269;-73